Time;durP1;ratioP1;P1;durP2;ratioP2;P2;SDS_P1;SDS_P2;PMS_P1;PMS_P2;Temp;Humidity;BMP_temperature;BMP_pressure;BME280_temperature;BME280_humidity;BME280_pressure;Samples;Min_cycle;Max_cycle;Signal;HPM_P1;HPM_P2
2020/12/17 00:01:22;;;;;;;12.90;7.12;;;4.30;99.90;;;;;;1851357;75;21239;-78
2020/12/17 00:03:49;;;;;;;10.80;6.72;;;4.30;99.90;;;;;;1862099;75;21204;-77
2020/12/17 00:06:15;;;;;;;14.03;7.03;;;4.20;99.90;;;;;;1851332;75;21159;-78
2020/12/17 00:08:41;;;;;;;14.03;7.75;;;4.20;99.90;;;;;;1860452;75;21089;-77
2020/12/17 00:11:07;;;;;;;12.05;6.83;;;4.10;99.90;;;;;;1856712;75;21097;-78
2020/12/17 00:13:33;;;;;;;10.60;6.22;;;4.10;99.90;;;;;;1879895;76;21172;-78
2020/12/17 00:16:00;;;;;;;14.00;7.37;;;4.10;99.90;;;;;;1864658;76;21067;-79
2020/12/17 00:18:26;;;;;;;18.32;7.78;;;4.10;99.90;;;;;;1873855;76;21514;-78
2020/12/17 00:20:52;;;;;;;10.98;7.05;;;4.00;99.90;;;;;;1856024;75;21497;-78
2020/12/17 00:23:18;;;;;;;10.00;6.58;;;4.00;99.90;;;;;;1851844;75;21595;-78
2020/12/17 00:25:44;;;;;;;9.93;6.50;;;4.00;99.90;;;;;;1860870;75;21475;-78
2020/12/17 00:28:10;;;;;;;12.98;6.70;;;4.00;99.90;;;;;;1868328;76;21149;-78
2020/12/17 00:30:36;;;;;;;11.73;7.00;;;3.90;99.90;;;;;;1870632;75;21060;-77
2020/12/17 00:33:02;;;;;;;13.13;7.15;;;4.00;99.90;;;;;;1868540;75;21103;-77
2020/12/17 00:35:29;;;;;;;13.30;6.80;;;4.00;99.90;;;;;;1859009;75;21090;-78
2020/12/17 00:37:55;;;;;;;12.90;6.87;;;3.90;99.90;;;;;;1886875;76;21095;-78
2020/12/17 00:40:21;;;;;;;11.93;7.35;;;3.90;99.90;;;;;;1870090;75;21157;-77
2020/12/17 00:42:47;;;;;;;11.55;7.00;;;3.90;99.90;;;;;;1871891;75;21100;-78
2020/12/17 00:45:13;;;;;;;11.78;7.22;;;3.90;99.90;;;;;;1861220;75;21215;-78
2020/12/17 00:47:39;;;;;;;14.05;7.37;;;3.90;99.90;;;;;;1864178;75;21222;-77
2020/12/17 00:50:05;;;;;;;15.48;7.72;;;3.90;99.90;;;;;;1861819;75;21101;-77
2020/12/17 00:52:32;;;;;;;9.63;6.87;;;3.90;99.90;;;;;;1868124;75;21106;-77
2020/12/17 00:54:58;;;;;;;14.07;7.17;;;3.90;99.90;;;;;;1860576;75;21151;-77
2020/12/17 00:57:24;;;;;;;13.80;7.10;;;3.80;99.90;;;;;;1854629;75;21151;-78
2020/12/17 00:59:50;;;;;;;12.90;7.40;;;3.80;99.90;;;;;;1855087;75;21090;-78
2020/12/17 01:02:16;;;;;;;13.08;6.72;;;3.80;99.90;;;;;;1861215;75;21200;-77
2020/12/17 01:04:42;;;;;;;11.28;6.33;;;3.70;99.90;;;;;;1852010;75;21129;-78
2020/12/17 01:07:09;;;;;;;11.85;7.60;;;3.50;99.90;;;;;;1881846;76;21096;-78
2020/12/17 01:09:35;;;;;;;17.10;7.47;;;3.40;99.90;;;;;;1880381;75;21098;-78
2020/12/17 01:12:03;;;;;;;10.05;7.08;;;3.50;99.90;;;;;;1875752;75;21099;-78
2020/12/17 01:14:29;;;;;;;13.15;7.45;;;3.40;99.90;;;;;;1893810;75;21191;-77
2020/12/17 01:16:55;;;;;;;17.23;7.53;;;3.40;99.90;;;;;;1864138;75;21169;-78
2020/12/17 01:19:21;;;;;;;15.05;7.22;;;3.30;99.90;;;;;;1863937;75;21052;-77
2020/12/17 01:21:47;;;;;;;13.85;6.60;;;3.40;99.90;;;;;;1860817;75;21152;-78
2020/12/17 01:24:14;;;;;;;10.65;7.03;;;3.40;99.90;;;;;;1880159;75;21150;-78
2020/12/17 01:26:40;;;;;;;11.00;6.95;;;3.30;99.90;;;;;;1860655;75;21090;-77
2020/12/17 01:29:06;;;;;;;11.12;6.90;;;3.30;99.90;;;;;;1861709;75;21124;-77
2020/12/17 01:31:32;;;;;;;11.45;7.10;;;3.20;99.90;;;;;;1857596;75;21097;-77
2020/12/17 01:33:58;;;;;;;9.98;6.17;;;3.20;99.90;;;;;;1859361;75;21068;-77
2020/12/17 01:36:24;;;;;;;9.93;5.50;;;3.10;99.90;;;;;;1864887;75;21175;-77
2020/12/17 01:38:50;;;;;;;10.32;5.90;;;3.10;99.90;;;;;;1858057;75;21091;-77
2020/12/17 01:41:16;;;;;;;13.25;7.80;;;3.10;99.90;;;;;;1870856;75;21182;-77
2020/12/17 01:43:43;;;;;;;9.53;6.58;;;3.10;99.90;;;;;;1855389;75;21105;-78
2020/12/17 01:46:09;;;;;;;11.18;6.80;;;3.00;99.90;;;;;;1855511;75;21093;-77
2020/12/17 01:48:35;;;;;;;19.90;7.40;;;2.90;99.90;;;;;;1865877;75;21089;-77
2020/12/17 01:51:01;;;;;;;12.33;6.75;;;2.90;99.90;;;;;;1854405;75;21079;-78
2020/12/17 01:53:27;;;;;;;15.90;7.47;;;2.90;99.90;;;;;;1854337;75;21097;-77
2020/12/17 01:55:53;;;;;;;14.83;8.20;;;2.80;99.90;;;;;;1870227;75;21163;-77
2020/12/17 01:58:19;;;;;;;10.58;7.35;;;2.90;99.90;;;;;;1873808;75;21181;-78
2020/12/17 02:00:46;;;;;;;15.70;8.70;;;2.80;99.90;;;;;;1853868;75;21098;-78
2020/12/17 02:03:12;;;;;;;13.83;8.78;;;2.80;99.90;;;;;;1853686;75;21220;-78
2020/12/17 02:05:38;;;;;;;13.20;9.23;;;2.80;99.90;;;;;;1865445;75;21056;-79
2020/12/17 02:08:06;;;;;;;13.45;8.10;;;2.70;99.90;;;;;;1862793;75;21102;-78
2020/12/17 02:10:32;;;;;;;14.43;8.65;;;2.70;99.90;;;;;;1872065;75;21095;-79
2020/12/17 02:12:58;;;;;;;9.98;7.90;;;2.70;99.90;;;;;;1855769;75;21159;-79
2020/12/17 02:15:24;;;;;;;19.85;7.50;;;2.60;99.90;;;;;;1854419;75;21094;-78
2020/12/17 02:17:50;;;;;;;9.83;7.22;;;2.60;99.90;;;;;;1873703;75;21161;-78
2020/12/17 02:20:16;;;;;;;12.28;7.72;;;2.50;99.90;;;;;;1848900;75;21168;-78
2020/12/17 02:22:42;;;;;;;11.08;7.95;;;2.60;99.90;;;;;;1855515;75;21471;-79
2020/12/17 02:25:08;;;;;;;13.20;7.55;;;2.60;99.90;;;;;;1854568;75;21604;-76
2020/12/17 02:27:37;;;;;;;11.85;7.58;;;2.50;99.90;;;;;;1851076;75;21485;-79
2020/12/17 02:30:03;;;;;;;12.03;7.35;;;2.50;99.90;;;;;;1885545;75;21099;-77
2020/12/17 02:32:29;;;;;;;10.53;6.90;;;2.60;99.90;;;;;;1888104;75;21083;-78
2020/12/17 02:34:57;;;;;;;12.23;7.42;;;2.50;99.90;;;;;;1873138;75;21095;-77
2020/12/17 02:37:23;;;;;;;12.75;6.55;;;2.40;99.90;;;;;;1868556;75;21481;-79
2020/12/17 02:39:49;;;;;;;11.97;6.47;;;2.50;99.90;;;;;;1848728;75;21463;-77
2020/12/17 02:42:15;;;;;;;8.73;5.95;;;2.40;99.90;;;;;;1857734;75;21156;-78
2020/12/17 02:44:41;;;;;;;12.40;6.90;;;2.40;99.90;;;;;;1867188;75;21082;-78
2020/12/17 02:47:08;;;;;;;11.65;7.00;;;2.40;99.90;;;;;;1870437;75;21087;-77
2020/12/17 02:49:34;;;;;;;17.30;7.15;;;2.40;99.90;;;;;;1864545;75;21093;-77
2020/12/17 02:52:00;;;;;;;9.60;6.25;;;2.40;99.90;;;;;;1872190;75;21056;-78
2020/12/17 02:54:26;;;;;;;9.18;6.40;;;2.30;99.90;;;;;;1859565;75;21148;-78
2020/12/17 02:56:52;;;;;;;9.43;6.15;;;2.30;99.90;;;;;;1865444;75;21091;-78
2020/12/17 02:59:18;;;;;;;12.20;7.12;;;2.20;99.90;;;;;;1852724;75;21078;-78
2020/12/17 03:01:44;;;;;;;11.28;6.92;;;2.10;99.90;;;;;;1850100;75;21089;-78
2020/12/17 03:04:10;;;;;;;14.25;7.50;;;2.20;99.90;;;;;;1850872;75;21145;-78
2020/12/17 03:06:36;;;;;;;11.57;7.15;;;2.10;99.90;;;;;;1876239;75;21103;-78
2020/12/17 03:09:03;;;;;;;10.10;6.95;;;2.20;99.90;;;;;;1857696;75;21163;-78
2020/12/17 03:11:29;;;;;;;10.50;6.80;;;2.20;99.90;;;;;;1857046;75;21780;-78
2020/12/17 03:13:55;;;;;;;12.28;6.92;;;2.10;99.90;;;;;;1860856;75;21566;-78
2020/12/17 03:16:21;;;;;;;9.78;6.05;;;2.10;99.90;;;;;;1861136;75;21513;-77
2020/12/17 03:18:47;;;;;;;10.98;6.28;;;2.10;99.90;;;;;;1862947;75;21598;-76
2020/12/17 03:21:13;;;;;;;11.80;6.47;;;2.00;99.90;;;;;;1868386;75;21049;-77
2020/12/17 03:23:39;;;;;;;15.20;6.87;;;1.90;99.90;;;;;;1862436;75;21092;-77
2020/12/17 03:26:05;;;;;;;10.75;6.30;;;2.00;99.90;;;;;;1855519;75;21086;-76
2020/12/17 03:28:32;;;;;;;16.67;6.92;;;2.00;99.90;;;;;;1875934;76;21103;-78
2020/12/17 03:30:58;;;;;;;11.20;6.80;;;2.00;99.90;;;;;;1858369;75;21082;-76
2020/12/17 03:33:25;;;;;;;10.60;6.47;;;2.00;99.90;;;;;;1870905;75;21607;-76
2020/12/17 03:35:51;;;;;;;12.53;6.83;;;1.90;99.90;;;;;;1854796;75;21086;-76
2020/12/17 03:38:18;;;;;;;12.37;6.37;;;1.90;99.90;;;;;;1851696;75;21059;-77
2020/12/17 03:40:44;;;;;;;9.73;6.42;;;1.90;99.90;;;;;;1866436;75;21083;-78
2020/12/17 03:43:10;;;;;;;14.33;6.33;;;1.90;99.90;;;;;;1873881;75;21157;-76
2020/12/17 03:45:36;;;;;;;11.75;6.55;;;1.90;99.90;;;;;;1856501;75;21082;-77
2020/12/17 03:48:02;;;;;;;11.18;6.55;;;1.90;99.90;;;;;;1851661;75;21097;-77
2020/12/17 03:50:28;;;;;;;10.72;6.67;;;1.80;99.90;;;;;;1862730;75;21090;-77
2020/12/17 03:52:54;;;;;;;12.13;5.90;;;1.80;99.90;;;;;;1878922;75;21067;-77
2020/12/17 03:55:20;;;;;;;11.95;6.37;;;1.90;99.90;;;;;;1867064;75;21095;-77
2020/12/17 03:57:46;;;;;;;9.53;6.00;;;1.90;99.90;;;;;;1863052;75;21095;-77
2020/12/17 04:00:13;;;;;;;9.08;5.87;;;1.80;99.90;;;;;;1860587;75;21109;-77
2020/12/17 04:02:39;;;;;;;10.03;5.45;;;1.80;99.90;;;;;;1869867;75;21099;-77
2020/12/17 04:05:05;;;;;;;10.03;5.95;;;1.70;99.90;;;;;;1856714;75;21486;-77
2020/12/17 04:07:31;;;;;;;8.28;5.83;;;1.60;99.90;;;;;;1859090;75;21465;-77
2020/12/17 04:09:57;;;;;;;9.48;5.90;;;1.70;99.90;;;;;;1854908;75;21584;-77
2020/12/17 04:12:23;;;;;;;15.38;6.67;;;1.60;99.90;;;;;;1867756;75;21185;-77
2020/12/17 04:14:49;;;;;;;9.00;6.25;;;1.60;99.90;;;;;;1852563;75;21101;-78
2020/12/17 04:17:15;;;;;;;9.23;6.25;;;1.60;99.90;;;;;;1867956;76;21163;-78
2020/12/17 04:19:42;;;;;;;10.13;6.05;;;1.50;99.90;;;;;;1856906;75;21136;-77
2020/12/17 04:22:08;;;;;;;8.03;5.60;;;1.60;99.90;;;;;;1856277;75;21073;-76
2020/12/17 04:24:34;;;;;;;8.85;5.72;;;1.50;99.90;;;;;;1856528;75;21064;-77
2020/12/17 04:27:00;;;;;;;9.25;5.85;;;1.50;99.90;;;;;;1864402;75;21085;-77
2020/12/17 04:29:26;;;;;;;8.23;5.35;;;1.60;99.90;;;;;;1854281;75;21167;-77
2020/12/17 04:31:52;;;;;;;9.98;6.30;;;1.60;99.90;;;;;;1879729;75;21095;-76
2020/12/17 04:34:19;;;;;;;8.08;5.78;;;1.60;99.90;;;;;;1852268;75;21220;-76
2020/12/17 04:36:45;;;;;;;17.30;6.50;;;1.60;99.90;;;;;;1869144;75;21165;-77
2020/12/17 04:39:11;;;;;;;10.90;6.42;;;1.60;99.90;;;;;;1861158;75;21095;-77
2020/12/17 04:41:38;;;;;;;9.60;6.35;;;1.50;99.90;;;;;;1864280;75;21169;-78
2020/12/17 04:44:04;;;;;;;9.40;5.80;;;1.60;99.90;;;;;;1861280;76;21176;-77
2020/12/17 04:46:30;;;;;;;13.85;7.37;;;1.70;99.90;;;;;;1870939;75;21462;-77
2020/12/17 04:48:56;;;;;;;11.03;6.50;;;1.70;99.90;;;;;;1853549;75;21513;-75
2020/12/17 04:51:22;;;;;;;9.55;6.60;;;1.60;99.90;;;;;;1854666;75;21485;-76
2020/12/17 04:53:48;;;;;;;11.65;7.22;;;1.70;99.90;;;;;;1863160;75;21103;-77
2020/12/17 04:56:14;;;;;;;10.05;7.10;;;1.70;99.90;;;;;;1860187;75;21088;-77
2020/12/17 04:58:40;;;;;;;14.25;8.63;;;1.70;99.90;;;;;;1870301;75;21207;-77
2020/12/17 05:01:07;;;;;;;16.35;8.78;;;1.70;99.90;;;;;;1878193;75;21111;-77
2020/12/17 05:03:33;;;;;;;13.18;8.48;;;1.70;99.90;;;;;;1852474;75;21082;-76
2020/12/17 05:05:59;;;;;;;14.98;9.40;;;1.80;99.90;;;;;;1862561;75;21087;-76
2020/12/17 05:08:25;;;;;;;17.73;9.50;;;1.80;99.90;;;;;;1857323;75;21097;-78
2020/12/17 05:10:51;;;;;;;12.40;8.20;;;1.70;99.90;;;;;;1862940;75;21088;-79
2020/12/17 05:13:17;;;;;;;10.82;7.83;;;1.70;99.90;;;;;;1863924;75;21089;-77
2020/12/17 05:15:43;;;;;;;12.80;7.85;;;1.70;99.90;;;;;;1862327;75;21066;-77
2020/12/17 05:18:09;;;;;;;11.57;6.80;;;1.60;99.90;;;;;;1863933;75;21078;-77
2020/12/17 05:20:36;;;;;;;12.68;5.85;;;1.50;99.90;;;;;;1863375;75;21167;-77
2020/12/17 05:23:02;;;;;;;11.78;6.25;;;1.50;99.90;;;;;;1868222;75;21096;-78
2020/12/17 05:25:28;;;;;;;10.40;5.28;;;1.40;99.90;;;;;;1878458;75;21089;-77
2020/12/17 05:27:55;;;;;;;9.68;5.55;;;1.50;99.90;;;;;;1863304;75;21093;-76
2020/12/17 05:30:21;;;;;;;9.65;5.53;;;1.50;99.90;;;;;;1852322;76;21205;-76
2020/12/17 05:32:47;;;;;;;10.80;5.75;;;1.40;99.90;;;;;;1850281;75;21063;-78
2020/12/17 05:35:13;;;;;;;10.30;5.45;;;1.40;99.90;;;;;;1871081;75;21101;-76
2020/12/17 05:37:39;;;;;;;10.63;6.47;;;1.40;99.90;;;;;;1883405;75;21129;-77
2020/12/17 05:40:05;;;;;;;8.78;5.78;;;1.40;99.90;;;;;;1859331;75;21133;-77
2020/12/17 05:42:31;;;;;;;6.97;5.62;;;1.30;99.90;;;;;;1872817;75;21091;-76
2020/12/17 05:44:58;;;;;;;12.98;6.42;;;1.30;99.90;;;;;;1891731;76;21180;-79
2020/12/17 05:47:24;;;;;;;11.35;7.03;;;1.30;99.90;;;;;;1865168;75;21089;-77
2020/12/17 05:49:50;;;;;;;8.90;6.03;;;1.30;99.90;;;;;;1862081;75;21099;-77
2020/12/17 05:52:16;;;;;;;13.25;5.92;;;1.30;99.90;;;;;;1865445;75;21058;-75
2020/12/17 05:54:42;;;;;;;10.45;7.10;;;1.30;99.90;;;;;;1854178;75;21101;-77
2020/12/17 05:57:08;;;;;;;11.00;6.28;;;1.20;99.90;;;;;;1868926;75;21101;-76
2020/12/17 05:59:34;;;;;;;8.98;6.62;;;1.10;99.90;;;;;;1857796;75;21505;-78
2020/12/17 06:02:00;;;;;;;11.43;6.92;;;1.20;99.90;;;;;;1853073;75;21497;-78
2020/12/17 06:04:27;;;;;;;13.50;7.83;;;1.20;99.90;;;;;;1851668;75;21604;-76
2020/12/17 06:06:53;;;;;;;15.40;8.10;;;1.30;99.90;;;;;;1863205;75;21055;-78
2020/12/17 06:09:19;;;;;;;14.05;8.20;;;1.20;99.90;;;;;;1858946;75;21089;-77
2020/12/17 06:11:45;;;;;;;12.45;7.35;;;1.20;99.90;;;;;;1868098;76;21078;-77
2020/12/17 06:14:11;;;;;;;10.28;6.87;;;1.30;99.90;;;;;;1879100;75;21147;-76
2020/12/17 06:16:37;;;;;;;13.55;7.60;;;1.40;99.90;;;;;;1854835;75;21090;-76
2020/12/17 06:19:03;;;;;;;14.33;7.20;;;1.40;99.90;;;;;;1868537;75;21097;-76
2020/12/17 06:21:29;;;;;;;11.38;6.75;;;1.40;99.90;;;;;;1860485;75;21167;-76
2020/12/17 06:23:56;;;;;;;13.30;6.50;;;1.40;99.90;;;;;;1856453;75;21060;-78
2020/12/17 06:26:22;;;;;;;11.38;5.85;;;1.40;99.90;;;;;;1893425;76;21173;-76
2020/12/17 06:28:48;;;;;;;10.72;6.00;;;1.40;99.90;;;;;;1859967;75;21055;-76
2020/12/17 06:31:14;;;;;;;9.50;6.15;;;1.30;99.90;;;;;;1865873;75;21050;-76
2020/12/17 06:33:40;;;;;;;9.98;5.75;;;1.40;99.90;;;;;;1852089;75;21135;-75
2020/12/17 06:36:07;;;;;;;13.25;6.37;;;1.30;99.90;;;;;;1881638;76;21094;-77
2020/12/17 06:38:33;;;;;;;9.15;6.17;;;1.30;99.90;;;;;;1869297;75;21169;-76
2020/12/17 06:40:59;;;;;;;11.15;6.28;;;1.30;99.90;;;;;;1861885;75;21091;-78
2020/12/17 06:43:25;;;;;;;16.75;6.62;;;1.30;99.90;;;;;;1848546;75;21097;-76
2020/12/17 06:45:51;;;;;;;9.13;5.90;;;1.20;99.90;;;;;;1848466;75;21129;-76
2020/12/17 06:48:17;;;;;;;11.70;6.55;;;1.30;99.90;;;;;;1863451;75;21089;-76
2020/12/17 06:50:43;;;;;;;10.43;6.72;;;1.40;99.90;;;;;;1871758;75;21052;-78
2020/12/17 06:53:11;;;;;;;10.53;6.53;;;1.30;99.90;;;;;;1857761;75;21208;-76
2020/12/17 06:55:37;;;;;;;11.10;6.30;;;1.20;99.90;;;;;;1851873;75;21089;-78
2020/12/17 06:58:04;;;;;;;11.78;5.97;;;1.20;99.90;;;;;;1855752;75;21085;-78
2020/12/17 07:00:30;;;;;;;10.00;6.20;;;1.20;99.90;;;;;;1851300;75;21058;-78
2020/12/17 07:02:56;;;;;;;11.63;6.08;;;1.20;99.90;;;;;;1854302;75;21090;-78
2020/12/17 07:05:22;;;;;;;12.37;6.42;;;1.20;99.90;;;;;;1852108;75;21094;-76
2020/12/17 07:07:48;;;;;;;9.88;6.15;;;1.20;99.90;;;;;;1859293;75;21171;-78
2020/12/17 07:10:14;;;;;;;10.35;5.85;;;1.20;99.90;;;;;;1872062;75;21151;-77
2020/12/17 07:12:40;;;;;;;11.60;6.62;;;1.20;99.90;;;;;;1875191;75;21190;-77
2020/12/17 07:15:06;;;;;;;17.48;7.22;;;1.20;99.90;;;;;;1855664;75;21502;-77
2020/12/17 07:17:33;;;;;;;14.20;7.05;;;1.30;99.90;;;;;;1866637;75;21582;-77
2020/12/17 07:19:59;;;;;;;14.93;6.40;;;1.30;99.90;;;;;;1877352;75;21658;-76
2020/12/17 07:22:27;;;;;;;10.78;6.90;;;1.40;99.90;;;;;;1857628;75;21098;-77
2020/12/17 07:24:53;;;;;;;19.23;8.20;;;1.40;99.90;;;;;;1853799;75;21132;-77
2020/12/17 07:27:19;;;;;;;11.83;6.92;;;1.40;99.90;;;;;;1872199;75;21107;-79
2020/12/17 07:29:45;;;;;;;22.87;7.83;;;1.50;99.90;;;;;;1832070;76;21051;-78
2020/12/17 07:32:11;;;;;;;10.58;7.15;;;1.60;99.90;;;;;;1858121;75;21099;-78
2020/12/17 07:34:37;;;;;;;14.28;6.55;;;1.70;99.90;;;;;;1876948;75;21086;-78
2020/12/17 07:37:05;;;;;;;14.20;7.70;;;1.70;99.90;;;;;;1853484;75;21591;-79
2020/12/17 07:39:32;;;;;;;14.87;7.92;;;1.80;99.90;;;;;;1857152;75;21402;-77
2020/12/17 07:41:58;;;;;;;13.22;8.05;;;1.80;99.90;;;;;;1849409;75;21164;-80
2020/12/17 07:44:24;;;;;;;15.08;7.72;;;1.90;99.90;;;;;;1830273;76;21075;-80
2020/12/17 07:46:54;;;;;;;15.55;8.18;;;2.00;99.90;;;;;;1884272;75;21095;-80
2020/12/17 07:49:18;;;;;;;14.45;8.15;;;2.00;99.90;;;;;;1873186;75;21614;-79
2020/12/17 07:51:44;;;;;;;13.18;7.28;;;2.10;99.90;;;;;;1877215;75;21683;-79
2020/12/17 07:54:14;;;;;;;17.27;7.87;;;2.20;99.90;;;;;;1853707;75;21712;-80
2020/12/17 07:56:39;;;;;;;13.83;7.53;;;2.20;99.90;;;;;;1854798;75;22628;-77
2020/12/17 07:59:06;;;;;;;17.65;7.70;;;2.40;99.90;;;;;;1872124;76;21212;-79
2020/12/17 08:01:32;;;;;;;15.15;8.50;;;2.40;99.90;;;;;;1875311;75;21122;-78
2020/12/17 08:03:58;;;;;;;18.70;7.03;;;2.50;99.90;;;;;;1860151;73;21027;-77
2020/12/17 08:06:24;;;;;;;13.13;7.60;;;2.60;99.90;;;;;;1869591;75;21543;-79
2020/12/17 08:08:50;;;;;;;15.58;7.95;;;2.70;99.90;;;;;;1869380;73;21084;-81
2020/12/17 08:11:17;;;;;;;13.70;7.65;;;2.70;99.90;;;;;;1871638;75;21052;-76
2020/12/17 08:13:43;;;;;;;11.75;7.92;;;2.90;99.90;;;;;;1883160;75;21247;-73
2020/12/17 08:16:09;;;;;;;15.78;8.65;;;2.90;99.90;;;;;;1857006;75;21098;-78
2020/12/17 08:18:35;;;;;;;18.60;8.70;;;3.00;99.90;;;;;;1870954;75;21482;-77
2020/12/17 08:21:01;;;;;;;23.80;8.25;;;3.10;99.90;;;;;;1855593;75;21479;-79
2020/12/17 08:23:27;;;;;;;19.02;9.48;;;3.30;99.90;;;;;;1825048;77;21153;-78
2020/12/17 08:25:53;;;;;;;15.55;8.43;;;3.30;99.90;;;;;;1870357;75;21167;-80
2020/12/17 08:28:19;;;;;;;13.60;8.80;;;3.50;99.90;;;;;;1857301;75;21099;-78
2020/12/17 08:30:46;;;;;;;20.37;9.83;;;3.60;99.90;;;;;;1873996;75;21083;-79
2020/12/17 08:33:12;;;;;;;18.20;8.98;;;3.80;99.90;;;;;;1875933;75;21081;-79
2020/12/17 08:35:38;;;;;;;16.00;8.53;;;3.80;99.90;;;;;;1854816;75;21098;-78
2020/12/17 08:38:04;;;;;;;19.73;9.35;;;3.90;99.90;;;;;;1871583;75;21074;-78
2020/12/17 08:40:32;;;;;;;15.38;7.40;;;4.00;99.90;;;;;;1865925;75;21115;-79
2020/12/17 08:42:58;;;;;;;12.10;7.33;;;4.10;99.90;;;;;;1851943;75;21084;-79
2020/12/17 08:45:24;;;;;;;13.98;7.83;;;4.10;99.90;;;;;;1854116;75;21093;-80
2020/12/17 08:47:51;;;;;;;15.05;7.72;;;4.20;99.90;;;;;;1861801;75;21559;-82
2020/12/17 08:50:26;;;;;;;18.32;7.60;;;4.20;99.90;;;;;;1865708;75;21171;-79
2020/12/17 08:52:52;;;;;;;17.85;6.95;;;4.30;99.90;;;;;;1857323;75;21536;-76
2020/12/17 08:55:18;;;;;;;12.10;6.25;;;4.30;99.90;;;;;;1879945;75;21491;-78
2020/12/17 08:57:45;;;;;;;10.45;6.65;;;4.30;99.90;;;;;;1873347;75;21074;-77
2020/12/17 09:00:11;;;;;;;19.62;7.20;;;4.30;99.90;;;;;;1884821;74;21655;-79
2020/12/17 09:02:37;;;;;;;13.20;6.85;;;4.10;99.90;;;;;;1892963;74;21041;-79
2020/12/17 09:05:03;;;;;;;16.02;7.40;;;4.10;99.90;;;;;;1884742;74;21136;-78
2020/12/17 09:07:30;;;;;;;12.85;6.83;;;4.30;99.90;;;;;;1890377;74;21070;-78
2020/12/17 09:09:56;;;;;;;16.45;6.58;;;4.40;99.90;;;;;;1893896;73;21082;-77
2020/12/17 09:12:22;;;;;;;17.92;7.30;;;4.50;99.90;;;;;;1899268;74;21522;-77
2020/12/17 09:14:49;;;;;;;14.55;6.25;;;4.70;99.90;;;;;;1915109;74;21078;-77
2020/12/17 09:17:15;;;;;;;8.58;4.67;;;4.80;99.90;;;;;;1906138;74;21089;-77
2020/12/17 09:22:34;;;;;;;8.65;5.08;;;4.90;99.90;;;;;;1884709;76;21165;-77
2020/12/17 09:24:54;;;;;;;10.63;6.17;;;5.00;99.90;;;;;;1881942;73;21131;-80
2020/12/17 09:27:20;;;;;;;9.23;4.53;;;5.10;99.90;;;;;;1885628;75;21086;-77
2020/12/17 09:29:46;;;;;;;11.15;5.80;;;5.10;99.90;;;;;;1886551;76;21130;-78
2020/12/17 09:32:12;;;;;;;7.35;4.92;;;5.20;99.90;;;;;;1886910;76;21164;-78
2020/12/17 09:34:39;;;;;;;11.68;4.62;;;5.30;99.90;;;;;;1885179;75;21059;-79
2020/12/17 09:37:06;;;;;;;9.40;5.17;;;5.50;99.90;;;;;;1886295;76;21094;-77
2020/12/17 09:39:32;;;;;;;8.78;4.95;;;5.50;99.90;;;;;;1885314;76;21148;-77
2020/12/17 09:41:58;;;;;;;8.43;4.12;;;5.50;99.90;;;;;;1885720;76;21090;-76
2020/12/17 09:44:24;;;;;;;4.85;3.62;;;5.70;99.90;;;;;;1884893;75;21093;-76
2020/12/17 09:46:50;;;;;;;13.13;3.52;;;5.70;99.90;;;;;;1884215;76;21059;-75
2020/12/17 09:49:16;;;;;;;5.58;3.33;;;5.90;99.90;;;;;;1885119;76;21283;-77
2020/12/17 09:51:43;;;;;;;4.25;2.55;;;6.10;99.90;;;;;;1885734;76;21156;-76
2020/12/17 09:54:09;;;;;;;8.13;3.20;;;6.10;99.90;;;;;;1885011;75;21094;-76
2020/12/17 09:56:35;;;;;;;4.85;3.37;;;6.30;99.90;;;;;;1884958;76;21204;-77
2020/12/17 09:59:01;;;;;;;8.28;2.90;;;6.40;99.90;;;;;;1884795;76;21082;-78
2020/12/17 10:01:27;;;;;;;2.77;2.47;;;6.90;99.90;;;;;;1886313;76;21137;-76
2020/12/17 10:03:53;;;;;;;6.65;3.33;;;7.60;99.90;;;;;;1885762;76;21156;-79
2020/12/17 10:06:19;;;;;;;7.53;2.90;;;8.00;99.90;;;;;;1885442;76;21094;-80
2020/12/17 10:08:47;;;;;;;5.30;2.72;;;8.40;99.90;;;;;;1886461;75;21075;-78
2020/12/17 10:11:13;;;;;;;4.40;2.40;;;8.80;99.90;;;;;;1885752;76;21082;-77
2020/12/17 10:13:39;;;;;;;4.60;2.47;;;9.40;99.90;;;;;;1886275;75;21091;-79
2020/12/17 10:16:05;;;;;;;13.43;3.05;;;9.40;99.90;;;;;;1886038;75;21055;-77
2020/12/17 10:18:32;;;;;;;4.12;2.20;;;9.80;99.90;;;;;;1886423;76;21090;-78
2020/12/17 10:20:58;;;;;;;4.58;2.35;;;10.40;99.90;;;;;;1886250;76;21082;-78
2020/12/17 10:23:24;;;;;;;4.20;2.65;;;10.40;99.90;;;;;;1884875;76;21127;-79
2020/12/17 10:25:50;;;;;;;3.27;2.00;;;10.80;99.90;;;;;;1887098;74;21074;-76
2020/12/17 10:28:19;;;;;;;6.33;2.37;;;11.10;99.90;;;;;;1887192;75;21134;-78
2020/12/17 10:30:44;;;;;;;6.03;2.00;;;11.60;99.90;;;;;;1888800;74;21108;-79
2020/12/17 10:33:10;;;;;;;8.33;2.75;;;11.50;99.90;;;;;;1883755;75;21149;-78
2020/12/17 10:35:36;;;;;;;7.67;2.20;;;11.00;99.90;;;;;;1884677;76;21157;-78
2020/12/17 10:38:02;;;;;;;5.58;2.27;;;11.30;99.90;;;;;;1888790;75;21067;-76
2020/12/17 10:40:28;;;;;;;7.53;2.22;;;11.00;99.90;;;;;;1887208;76;21098;-78
2020/12/17 10:42:55;;;;;;;6.50;2.45;;;11.10;99.90;;;;;;1889794;74;21152;-75
2020/12/17 10:45:21;;;;;;;5.47;2.05;;;10.60;99.90;;;;;;1890175;75;21285;-78
2020/12/17 10:47:47;;;;;;;2.70;1.95;;;10.40;99.90;;;;;;1888003;76;21095;-78
2020/12/17 10:50:13;;;;;;;9.45;2.40;;;10.10;99.90;;;;;;1890606;75;21054;-77
2020/12/17 10:52:40;;;;;;;3.27;1.87;;;9.70;99.90;;;;;;1891165;74;21226;-80
2020/12/17 10:55:06;;;;;;;2.02;1.67;;;10.70;99.90;;;;;;1880133;75;21501;-80
2020/12/17 10:57:32;;;;;;;3.10;2.40;;;10.90;99.90;;;;;;1886856;75;21606;-78
2020/12/17 10:59:58;;;;;;;5.45;2.60;;;10.70;99.90;;;;;;1886370;75;21624;-80
2020/12/17 11:02:24;;;;;;;4.62;2.12;;;10.30;99.90;;;;;;1887226;76;21447;-79
2020/12/17 11:04:50;;;;;;;3.58;1.62;;;10.20;99.90;;;;;;1885363;76;21497;-80
2020/12/17 11:07:16;;;;;;;4.00;2.30;;;10.40;99.90;;;;;;1886547;76;21563;-80
2020/12/17 11:09:43;;;;;;;11.18;2.33;;;10.70;99.90;;;;;;1887130;76;21145;-76
2020/12/17 11:12:09;;;;;;;2.55;1.80;;;10.70;99.90;;;;;;1888937;76;21086;-78
2020/12/17 11:14:35;;;;;;;9.35;2.10;;;10.90;99.90;;;;;;1882745;75;21078;-80
2020/12/17 11:17:03;;;;;;;9.48;1.92;;;11.10;99.90;;;;;;1887257;76;21082;-77
2020/12/17 11:19:29;;;;;;;6.03;2.40;;;10.80;99.90;;;;;;1887709;76;21523;-78
2020/12/17 11:21:55;;;;;;;3.85;2.00;;;10.10;99.90;;;;;;1889524;75;21093;-80
2020/12/17 11:24:22;;;;;;;4.20;2.10;;;9.80;99.90;;;;;;1887355;76;21080;-79
2020/12/17 11:26:48;;;;;;;3.55;1.80;;;9.80;99.90;;;;;;1888776;75;21514;-80
2020/12/17 11:29:14;;;;;;;3.42;1.82;;;10.00;99.90;;;;;;1889180;76;21564;-80
2020/12/17 11:31:41;;;;;;;2.67;1.77;;;10.00;99.90;;;;;;1885957;75;21569;-81
2020/12/17 11:34:07;;;;;;;3.27;1.90;;;10.10;99.90;;;;;;1887260;76;21533;-86
2020/12/17 11:36:33;;;;;;;6.00;1.72;;;10.00;99.90;;;;;;1889483;75;21488;-82
2020/12/17 11:38:59;;;;;;;3.40;1.70;;;10.00;99.90;;;;;;1888864;76;21152;-80
2020/12/17 11:41:25;;;;;;;4.50;1.95;;;10.00;99.90;;;;;;1886968;76;21086;-81
2020/12/17 11:43:51;;;;;;;7.00;2.90;;;9.90;99.90;;;;;;1887617;76;21074;-79
2020/12/17 11:46:17;;;;;;;2.27;1.67;;;9.70;99.90;;;;;;1887266;75;21064;-80
2020/12/17 11:48:43;;;;;;;4.47;2.27;;;9.70;99.90;;;;;;1890168;75;21082;-79
2020/12/17 11:51:10;;;;;;;6.67;1.80;;;9.90;99.90;;;;;;1886189;76;21090;-79
2020/12/17 11:53:36;;;;;;;3.58;1.72;;;10.00;99.90;;;;;;1889562;76;21078;-80
2020/12/17 11:56:02;;;;;;;4.50;1.72;;;10.10;99.90;;;;;;1887693;76;21086;-80
2020/12/17 11:58:28;;;;;;;2.25;1.50;;;10.20;99.90;;;;;;1890780;76;21133;-79
2020/12/17 12:00:54;;;;;;;8.58;2.08;;;10.30;99.90;;;;;;1889880;76;21205;-80
2020/12/17 12:03:20;;;;;;;6.40;1.82;;;10.30;99.90;;;;;;1890342;76;21078;-79
2020/12/17 12:05:46;;;;;;;6.65;1.62;;;10.40;99.90;;;;;;1887233;76;21160;-80
2020/12/17 12:08:12;;;;;;;1.98;1.52;;;10.30;99.90;;;;;;1890288;75;21078;-80
2020/12/17 12:10:39;;;;;;;5.17;1.70;;;10.30;99.90;;;;;;1881964;76;21082;-80
2020/12/17 12:13:05;;;;;;;1.85;1.55;;;10.30;99.90;;;;;;1891516;76;21172;-79
2020/12/17 12:15:33;;;;;;;3.10;1.75;;;9.90;99.90;;;;;;1887055;76;21091;-79
2020/12/17 12:17:59;;;;;;;3.45;1.70;;;9.90;99.90;;;;;;1889120;74;21491;-80
2020/12/17 12:20:25;;;;;;;3.65;1.95;;;9.90;99.90;;;;;;1890599;75;21490;-80
2020/12/17 12:22:51;;;;;;;3.10;1.85;;;10.00;99.90;;;;;;1891075;74;21085;-79
2020/12/17 12:25:19;;;;;;;8.43;1.75;;;10.30;99.90;;;;;;1889303;74;21160;-80
2020/12/17 12:27:48;;;;;;;4.33;1.95;;;10.30;99.90;;;;;;1887017;74;21135;-79
2020/12/17 12:30:13;;;;;;;3.75;1.70;;;10.40;99.90;;;;;;1891098;74;21114;-80
2020/12/17 12:32:39;;;;;;;2.75;1.67;;;10.40;99.90;;;;;;1887096;75;21055;-78
2020/12/17 12:35:06;;;;;;;1.72;1.47;;;10.30;99.90;;;;;;1890960;76;21085;-78
2020/12/17 12:37:32;;;;;;;3.47;1.85;;;10.20;99.90;;;;;;1887068;75;21471;-79
2020/12/17 12:39:59;;;;;;;2.75;1.95;;;10.10;99.90;;;;;;1887558;76;21477;-79
2020/12/17 12:42:26;;;;;;;5.35;1.47;;;10.10;99.90;;;;;;1888725;76;21097;-78
2020/12/17 12:44:54;;;;;;;6.20;1.95;;;10.30;99.90;;;;;;1888531;76;21506;-80